createdAt,value
2022-09-03T00:00:51.967Z,15.91
2022-09-03T00:04:44.197Z,15.95
2022-09-03T00:08:32.999Z,15.95
2022-09-03T00:12:20.988Z,15.95
2022-09-03T00:16:10.237Z,15.93
2022-09-03T00:19:57.580Z,15.89
2022-09-03T00:23:42.783Z,15.87
2022-09-03T00:27:28.454Z,15.86
2022-09-03T00:31:14.978Z,15.81
2022-09-03T00:35:02.617Z,15.77
2022-09-03T00:38:45.562Z,15.76
2022-09-03T00:42:41.381Z,15.72
2022-09-03T00:46:28.120Z,15.69
2022-09-03T00:50:16.591Z,15.65
2022-09-03T00:54:11.963Z,15.62
2022-09-03T00:58:05.380Z,15.61
2022-09-03T01:01:55.549Z,15.51
2022-09-03T01:06:02.020Z,15.49
2022-09-03T01:09:51.408Z,15.50
2022-09-03T01:13:38.387Z,15.48
2022-09-03T01:17:30.623Z,15.45
2022-09-03T01:21:44.282Z,15.40
2022-09-03T01:25:40.673Z,15.33
2022-09-03T01:29:28.483Z,15.30
2022-09-03T01:33:17.029Z,15.30
2022-09-03T01:37:09.578Z,15.21
2022-09-03T01:41:21.463Z,15.13
2022-09-03T01:45:14.487Z,15.12
2022-09-03T01:49:04.958Z,15.10
2022-09-03T01:52:52.243Z,15.03
2022-09-03T01:56:47.151Z,15.01
2022-09-03T02:00:34.486Z,15.01
2022-09-03T02:04:20.540Z,15.00
2022-09-03T02:08:05.496Z,14.95
2022-09-03T02:11:53.570Z,14.88
2022-09-03T02:15:39.633Z,14.78
2022-09-03T02:19:24.458Z,14.73
2022-09-03T02:23:07.368Z,14.68
2022-09-03T02:26:50.373Z,14.65
2022-09-03T02:30:33.338Z,14.60
2022-09-03T02:34:17.706Z,14.61
2022-09-03T02:38:11.191Z,14.65
2022-09-03T02:41:56.665Z,14.65
2022-09-03T02:45:44.351Z,14.63
2022-09-03T02:49:29.189Z,14.64
2022-09-03T02:53:11.916Z,14.62
2022-09-03T02:56:54.803Z,14.59
2022-09-03T03:00:37.989Z,14.59
2022-09-03T03:04:20.866Z,14.53
2022-09-03T03:08:05.101Z,14.52
2022-09-03T03:11:51.283Z,14.47
2022-09-03T03:15:34.023Z,14.44
2022-09-03T03:19:16.784Z,14.47
2022-09-03T03:22:59.530Z,14.38
2022-09-03T03:26:46.462Z,14.38
2022-09-03T03:30:29.307Z,14.38
2022-09-03T03:34:12.087Z,14.25
2022-09-03T03:37:54.832Z,14.23
2022-09-03T03:41:38.259Z,14.23
2022-09-03T03:45:22.375Z,14.27
2022-09-03T03:49:06.440Z,14.29
2022-09-03T03:52:49.208Z,14.28
2022-09-03T03:56:31.984Z,14.29
2022-09-03T04:00:16.474Z,14.28
2022-09-03T04:04:01.090Z,14.25
2022-09-03T04:07:45.018Z,14.21
2022-09-03T04:11:27.820Z,14.22
2022-09-03T04:15:11.510Z,14.21
2022-09-03T04:18:54.643Z,14.16
2022-09-03T04:22:38.750Z,14.13
2022-09-03T04:26:23.829Z,14.15
2022-09-03T04:30:07.763Z,14.17
2022-09-03T04:33:51.259Z,14.22
2022-09-03T04:37:34.333Z,14.22
2022-09-03T04:41:19.676Z,14.28
2022-09-03T04:45:02.424Z,14.27
2022-09-03T04:48:45.202Z,14.33
2022-09-03T04:52:31.415Z,14.40
2022-09-03T04:56:15.058Z,14.47
2022-09-03T04:59:59.200Z,14.50
2022-09-03T05:03:41.951Z,14.53
2022-09-03T05:07:24.758Z,14.57
2022-09-03T05:11:08.443Z,14.65
2022-09-03T05:14:51.180Z,14.71
2022-09-03T05:18:36.323Z,14.69
2022-09-03T05:22:21.380Z,14.62
2022-09-03T05:26:09.055Z,14.55
2022-09-03T05:29:53.822Z,14.49
2022-09-03T05:33:38.847Z,14.48
2022-09-03T05:37:22.222Z,14.46
2022-09-03T05:41:07.124Z,14.47
2022-09-03T05:44:50.017Z,14.49
2022-09-03T05:48:34.332Z,14.63
2022-09-03T05:52:21.611Z,14.82
2022-09-03T05:56:07.114Z,14.98
2022-09-03T05:59:50.060Z,15.06
2022-09-03T06:03:32.928Z,15.06
2022-09-03T06:07:16.187Z,15.09
2022-09-03T06:11:00.525Z,15.19
2022-09-03T06:14:43.503Z,15.35
2022-09-03T06:18:26.461Z,15.45
2022-09-03T06:22:09.178Z,15.42
2022-09-03T06:26:05.246Z,15.41
2022-09-03T06:29:48.424Z,15.39
2022-09-03T06:33:31.968Z,15.41
2022-09-03T06:37:14.707Z,15.42
2022-09-03T06:40:58.174Z,15.49
2022-09-03T06:44:45.257Z,15.55
2022-09-03T06:48:29.126Z,15.52
2022-09-03T06:52:11.917Z,15.48
2022-09-03T06:55:55.936Z,15.46
2022-09-03T06:59:38.673Z,15.42
2022-09-03T07:03:22.970Z,15.32
2022-09-03T07:07:05.800Z,15.33
2022-09-03T07:10:49.068Z,15.31
2022-09-03T07:14:31.917Z,15.34
2022-09-03T07:18:14.648Z,15.39
2022-09-03T07:21:58.782Z,15.44
2022-09-03T07:25:41.515Z,15.35
2022-09-03T07:29:24.601Z,15.29
2022-09-03T07:33:07.385Z,15.29
2022-09-03T07:36:51.146Z,15.24
2022-09-03T07:40:35.595Z,15.23
2022-09-03T07:44:20.026Z,15.27
2022-09-03T07:48:03.793Z,15.35
2022-09-03T07:51:50.575Z,15.36
2022-09-03T07:55:33.887Z,15.52
2022-09-03T07:59:18.182Z,15.49
2022-09-03T08:03:06.117Z,15.48
2022-09-03T08:06:49.681Z,15.56
2022-09-03T08:10:35.225Z,15.71
2022-09-03T08:14:19.383Z,16.02
2022-09-03T08:18:03.464Z,16.27
2022-09-03T08:21:48.744Z,16.39
2022-09-03T08:25:31.500Z,16.64
2022-09-03T08:29:14.292Z,16.85
2022-09-03T08:32:58.475Z,17.02
2022-09-03T08:36:42.363Z,17.14
2022-09-03T08:40:25.372Z,17.32
2022-09-03T08:44:19.894Z,17.56
2022-09-03T08:48:08.301Z,17.49
2022-09-03T08:51:51.870Z,17.38
2022-09-03T08:55:42.660Z,17.33
2022-09-03T08:59:27.072Z,17.36
2022-09-03T09:03:35.421Z,17.44
2022-09-03T09:07:21.793Z,17.60
2022-09-03T09:11:12.624Z,17.74
2022-09-03T09:15:06.679Z,17.84
2022-09-03T09:18:58.945Z,17.91
2022-09-03T09:22:43.773Z,18.00
2022-09-03T09:26:30.529Z,18.17
2022-09-03T09:30:18.120Z,18.34
2022-09-03T09:34:06.721Z,18.47
2022-09-03T09:37:51.229Z,18.57
2022-09-03T09:41:34.218Z,18.66
2022-09-03T09:45:17.082Z,18.93
2022-09-03T09:49:00.316Z,18.99
2022-09-03T09:52:45.810Z,19.06
2022-09-03T09:56:32.567Z,19.11
2022-09-03T10:00:17.322Z,19.19
2022-09-03T10:04:01.492Z,19.52
2022-09-03T10:07:56.198Z,19.68
2022-09-03T10:11:40.581Z,19.64
2022-09-03T10:15:26.781Z,19.69
2022-09-03T10:19:13.379Z,19.76
2022-09-03T10:22:58.985Z,19.79
2022-09-03T10:26:42.057Z,19.79
2022-09-03T10:30:24.783Z,19.91
2022-09-03T10:34:14.151Z,20.02
2022-09-03T10:38:06.759Z,20.12
2022-09-03T10:42:02.656Z,20.22
2022-09-03T10:45:53.502Z,20.39
2022-09-03T10:49:48.394Z,20.60
2022-09-03T10:53:49.935Z,20.75
2022-09-03T10:57:42.119Z,20.95
2022-09-03T11:01:30.256Z,21.03
2022-09-03T11:05:19.013Z,21.05
2022-09-03T11:09:09.061Z,21.08
2022-09-03T11:13:04.985Z,21.19
2022-09-03T11:16:51.461Z,21.27
2022-09-03T11:20:34.484Z,21.35
2022-09-03T11:24:22.458Z,21.37
2022-09-03T11:28:14.403Z,21.40
2022-09-03T11:32:01.674Z,21.46
2022-09-03T11:35:44.577Z,21.46
2022-09-03T11:39:36.333Z,21.51
2022-09-03T11:43:28.413Z,21.55
2022-09-03T11:47:17.215Z,21.54
2022-09-03T11:50:59.963Z,21.57
2022-09-03T11:54:48.336Z,21.72
2022-09-03T11:58:32.896Z,21.73
2022-09-03T12:02:27.305Z,21.82
2022-09-03T12:06:27.943Z,22.18
2022-09-03T12:10:20.817Z,22.11
2022-09-03T12:14:13.921Z,22.08
2022-09-03T12:18:12.297Z,22.12
2022-09-03T12:21:56.482Z,22.21
2022-09-03T12:25:47.422Z,22.25
2022-09-03T12:29:31.861Z,22.27
2022-09-03T12:33:15.017Z,22.29
2022-09-03T12:36:57.785Z,22.34
2022-09-03T12:44:47.932Z,22.38
2022-09-03T12:48:30.850Z,22.33
2022-09-03T12:52:19.228Z,22.26
2022-09-03T12:56:04.891Z,22.23
2022-09-03T12:59:49.184Z,22.17
2022-09-03T13:03:34.536Z,22.20
2022-09-03T13:07:24.242Z,22.27
2022-09-03T13:11:08.683Z,22.30
2022-09-03T13:14:52.512Z,22.30
2022-09-03T13:18:39.998Z,22.42
2022-09-03T13:22:28.275Z,22.48
2022-09-03T13:26:22.227Z,22.53
2022-09-03T13:30:11.009Z,22.63
2022-09-03T13:33:56.746Z,22.91
2022-09-03T13:37:44.387Z,23.10
2022-09-03T13:41:36.698Z,23.15
2022-09-03T13:45:27.759Z,23.02
2022-09-03T13:49:36.245Z,22.92
2022-09-03T13:53:23.596Z,22.77
2022-09-03T13:57:10.587Z,22.65
2022-09-03T14:00:56.154Z,22.56
2022-09-03T14:04:48.893Z,22.42
2022-09-03T14:08:38.937Z,22.31
2022-09-03T14:12:35.694Z,22.22
2022-09-03T14:16:27.692Z,22.19
2022-09-03T14:20:14.476Z,22.18
2022-09-03T14:24:05.415Z,22.21
2022-09-03T14:27:51.035Z,20.66
2022-09-03T14:31:53.283Z,17.62
2022-09-03T14:36:12.283Z,15.89
2022-09-03T14:39:56.512Z,15.35
2022-09-03T14:44:08.157Z,15.07
2022-09-03T14:48:11.536Z,15.17
2022-09-03T14:52:13.099Z,15.03
2022-09-03T14:56:09.320Z,15.06
2022-09-03T15:00:12.051Z,15.06
2022-09-03T15:04:32.675Z,14.88
2022-09-03T15:08:28.617Z,14.85
2022-09-03T15:12:17.842Z,14.96
2022-09-03T15:16:13.005Z,15.05
2022-09-03T15:20:04.669Z,15.10
2022-09-03T15:23:54.691Z,15.17
2022-09-03T15:27:53.457Z,15.18
2022-09-03T15:31:46.998Z,15.05
2022-09-03T15:35:40.243Z,15.07
2022-09-03T15:39:25.233Z,15.05
2022-09-03T15:43:10.528Z,15.13
2022-09-03T15:46:58.769Z,15.13
2022-09-03T15:50:53.770Z,15.23
2022-09-03T15:54:43.420Z,15.41
2022-09-03T15:58:30.841Z,15.52
2022-09-03T16:02:18.317Z,15.60
2022-09-03T16:06:04.592Z,15.82
2022-09-03T16:10:22.565Z,16.00
2022-09-03T16:14:04.773Z,16.56
2022-09-03T16:17:56.577Z,17.26
2022-09-03T16:21:44.508Z,17.78
2022-09-03T16:25:31.796Z,18.14
2022-09-03T16:29:16.025Z,18.47
2022-09-03T16:33:09.469Z,18.78
2022-09-03T16:37:00.252Z,19.05
2022-09-03T16:40:48.117Z,19.22
2022-09-03T16:44:41.193Z,19.23
2022-09-03T16:48:33.431Z,19.10
2022-09-03T16:52:37.579Z,19.02
2022-09-03T16:56:36.975Z,18.88
2022-09-03T17:00:21.530Z,18.64
2022-09-03T17:04:30.167Z,18.27
2022-09-03T17:08:20.873Z,18.10
2022-09-03T17:12:10.340Z,17.89
2022-09-03T17:15:59.350Z,17.74
2022-09-03T17:19:48.864Z,17.61
2022-09-03T17:24:16.362Z,17.47
2022-09-03T17:28:10.787Z,17.31
2022-09-03T17:32:01.296Z,17.21
2022-09-03T17:35:51.085Z,17.12
2022-09-03T17:39:53.580Z,17.03
2022-09-03T17:43:47.379Z,16.94
2022-09-03T17:48:07.521Z,16.85
2022-09-03T17:52:01.281Z,16.77
2022-09-03T17:55:46.264Z,16.63
2022-09-03T17:59:38.797Z,16.49
2022-09-03T18:03:25.719Z,16.41
2022-09-03T18:07:16.620Z,16.37
2022-09-03T18:11:09.370Z,16.30
2022-09-03T18:14:56.829Z,16.25
2022-09-03T18:18:46.329Z,16.18
2022-09-03T18:22:50.571Z,16.15
2022-09-03T18:26:54.552Z,16.11
2022-09-03T18:30:54.849Z,16.08
2022-09-03T18:34:55.505Z,16.07
2022-09-03T18:38:57.867Z,16.05
2022-09-03T18:43:10.196Z,16.11
2022-09-03T18:51:44.513Z,15.97
2022-09-03T18:55:55.638Z,15.92
2022-09-03T19:00:28.739Z,15.87
2022-09-03T19:04:34.573Z,15.78
2022-09-03T19:08:38.545Z,15.74
2022-09-03T19:12:58.873Z,15.72
2022-09-03T19:17:04.861Z,15.66
2022-09-03T19:21:10.023Z,15.65
2022-09-03T19:25:11.494Z,15.61
2022-09-03T19:29:15.606Z,15.59
2022-09-03T19:33:22.916Z,15.61
2022-09-03T19:37:28.716Z,15.65
2022-09-03T19:41:37.255Z,15.63
2022-09-03T19:45:43.948Z,15.60
2022-09-03T19:49:49.770Z,15.57
2022-09-03T19:53:51.102Z,15.58
2022-09-03T19:57:51.410Z,15.51
2022-09-03T20:01:55.498Z,15.51
2022-09-03T20:05:56.090Z,15.48
2022-09-03T20:09:58.582Z,15.47
2022-09-03T20:13:55.274Z,15.46
2022-09-03T20:17:43.231Z,15.48
2022-09-03T20:21:31.163Z,15.48
2022-09-03T20:25:27.881Z,15.42
2022-09-03T20:29:22.681Z,15.40
2022-09-03T20:33:32.991Z,15.37
2022-09-03T20:37:27.484Z,15.36
2022-09-03T20:41:15.787Z,15.37
2022-09-03T20:45:06.628Z,15.36
2022-09-03T20:48:57.934Z,15.34
2022-09-03T20:52:51.810Z,15.34
2022-09-03T20:56:43.704Z,15.30
2022-09-03T21:00:27.000Z,15.33
2022-09-03T21:04:22.520Z,15.34
2022-09-03T21:08:15.643Z,15.33
2022-09-03T21:12:03.062Z,15.34
2022-09-03T21:15:56.487Z,15.35
2022-09-03T21:19:48.171Z,15.29
2022-09-03T21:23:36.615Z,15.22
2022-09-03T21:27:21.853Z,15.21
2022-09-03T21:31:10.733Z,15.16
2022-09-03T21:35:03.824Z,15.05
2022-09-03T21:38:49.111Z,14.98
2022-09-03T21:42:36.536Z,14.92
2022-09-03T21:46:23.403Z,14.85
2022-09-03T21:50:16.690Z,14.80
2022-09-03T21:54:03.042Z,14.81
2022-09-03T21:57:53.479Z,14.76
2022-09-03T22:01:45.392Z,14.80
2022-09-03T22:05:34.975Z,14.84
2022-09-03T22:09:21.350Z,14.84
2022-09-03T22:13:15.919Z,14.87
2022-09-03T22:17:04.641Z,14.85
2022-09-03T22:20:52.735Z,14.81
2022-09-03T22:24:42.851Z,14.73
2022-09-03T22:28:29.234Z,14.67
2022-09-03T22:32:25.085Z,14.63
2022-09-03T22:36:15.506Z,14.60
2022-09-03T22:40:05.670Z,14.59
2022-09-03T22:43:50.977Z,14.57
2022-09-03T22:47:38.734Z,14.54
2022-09-03T22:51:22.979Z,14.52
2022-09-03T22:55:15.619Z,14.51
2022-09-03T22:59:09.963Z,14.48
2022-09-03T23:03:03.318Z,14.47
2022-09-03T23:06:53.326Z,14.58
2022-09-03T23:10:48.660Z,14.63
2022-09-03T23:14:35.478Z,14.60
2022-09-03T23:18:20.768Z,14.54
2022-09-03T23:22:08.562Z,14.49
2022-09-03T23:25:54.766Z,14.47
2022-09-03T23:29:41.441Z,14.48
2022-09-03T23:33:24.267Z,14.43
2022-09-03T23:37:33.683Z,14.36
2022-09-03T23:41:25.288Z,14.26
2022-09-03T23:45:16.040Z,14.18
2022-09-03T23:49:21.986Z,14.21
2022-09-03T23:53:21.508Z,14.20
2022-09-03T23:57:08.402Z,14.18
